sensor_id;sensor_type;location;lat;lon;timestamp;temperature;humidity
16327;DHT22;34812;49.846;9.610;2022-11-13T00:01:07;5.90;99.90
16327;DHT22;34812;49.846;9.610;2022-11-13T00:02:08;5.90;99.90
16327;DHT22;34812;49.846;9.610;2022-11-13T00:03:09;5.90;99.90
16327;DHT22;34812;49.846;9.610;2022-11-13T00:04:11;5.90;99.90
16327;DHT22;34812;49.846;9.610;2022-11-13T00:05:13;5.90;99.90
16327;DHT22;34812;49.846;9.610;2022-11-13T00:06:16;5.80;99.90
16327;DHT22;34812;49.846;9.610;2022-11-13T00:07:17;5.80;99.90
16327;DHT22;34812;49.846;9.610;2022-11-13T00:08:18;5.80;99.90
16327;DHT22;34812;49.846;9.610;2022-11-13T00:09:19;5.80;99.90
16327;DHT22;34812;49.846;9.610;2022-11-13T00:10:21;5.80;99.90
16327;DHT22;34812;49.846;9.610;2022-11-13T00:11:22;5.80;99.90
16327;DHT22;34812;49.846;9.610;2022-11-13T00:12:24;5.80;99.90
16327;DHT22;34812;49.846;9.610;2022-11-13T00:13:25;5.80;99.90
16327;DHT22;34812;49.846;9.610;2022-11-13T00:14:27;5.70;99.90
16327;DHT22;34812;49.846;9.610;2022-11-13T00:15:27;5.70;99.90
16327;DHT22;34812;49.846;9.610;2022-11-13T00:16:29;5.70;99.90
16327;DHT22;34812;49.846;9.610;2022-11-13T00:17:30;5.70;99.90
16327;DHT22;34812;49.846;9.610;2022-11-13T00:18:33;5.70;99.90
16327;DHT22;34812;49.846;9.610;2022-11-13T00:19:34;5.60;99.90
16327;DHT22;34812;49.846;9.610;2022-11-13T00:20:38;5.60;99.90
16327;DHT22;34812;49.846;9.610;2022-11-13T00:21:39;5.60;99.90
16327;DHT22;34812;49.846;9.610;2022-11-13T00:22:40;5.50;99.90
16327;DHT22;34812;49.846;9.610;2022-11-13T00:23:42;5.50;99.90
16327;DHT22;34812;49.846;9.610;2022-11-13T00:24:43;5.50;99.90
16327;DHT22;34812;49.846;9.610;2022-11-13T00:25:44;5.50;99.90
16327;DHT22;34812;49.846;9.610;2022-11-13T00:26:46;5.50;99.90
16327;DHT22;34812;49.846;9.610;2022-11-13T00:27:46;5.40;99.90
16327;DHT22;34812;49.846;9.610;2022-11-13T00:28:51;5.40;99.90
16327;DHT22;34812;49.846;9.610;2022-11-13T00:29:52;5.40;99.90
16327;DHT22;34812;49.846;9.610;2022-11-13T00:30:57;5.40;99.90
16327;DHT22;34812;49.846;9.610;2022-11-13T00:31:59;5.40;99.90
16327;DHT22;34812;49.846;9.610;2022-11-13T00:33:00;5.40;99.90
16327;DHT22;34812;49.846;9.610;2022-11-13T00:34:02;5.40;99.90
16327;DHT22;34812;49.846;9.610;2022-11-13T00:35:03;5.40;99.90
16327;DHT22;34812;49.846;9.610;2022-11-13T00:36:09;5.40;99.90
16327;DHT22;34812;49.846;9.610;2022-11-13T00:37:13;5.40;99.90
16327;DHT22;34812;49.846;9.610;2022-11-13T00:38:15;5.40;99.90
16327;DHT22;34812;49.846;9.610;2022-11-13T00:39:16;5.40;99.90
16327;DHT22;34812;49.846;9.610;2022-11-13T00:40:17;5.40;99.90
16327;DHT22;34812;49.846;9.610;2022-11-13T00:41:18;5.30;99.90
16327;DHT22;34812;49.846;9.610;2022-11-13T00:42:20;5.30;99.90
16327;DHT22;34812;49.846;9.610;2022-11-13T00:43:21;5.30;99.90
16327;DHT22;34812;49.846;9.610;2022-11-13T00:44:23;5.30;99.90
16327;DHT22;34812;49.846;9.610;2022-11-13T00:45:23;5.30;99.90
16327;DHT22;34812;49.846;9.610;2022-11-13T00:46:25;5.40;99.90
16327;DHT22;34812;49.846;9.610;2022-11-13T00:47:26;5.30;99.90
16327;DHT22;34812;49.846;9.610;2022-11-13T00:48:28;5.30;99.90
16327;DHT22;34812;49.846;9.610;2022-11-13T00:49:28;5.30;99.90
16327;DHT22;34812;49.846;9.610;2022-11-13T00:50:30;5.30;99.90
16327;DHT22;34812;49.846;9.610;2022-11-13T00:51:32;5.30;99.90
16327;DHT22;34812;49.846;9.610;2022-11-13T00:52:34;5.30;99.90
16327;DHT22;34812;49.846;9.610;2022-11-13T00:53:36;5.20;99.90
16327;DHT22;34812;49.846;9.610;2022-11-13T00:54:37;5.20;99.90
16327;DHT22;34812;49.846;9.610;2022-11-13T00:55:38;5.20;99.90
16327;DHT22;34812;49.846;9.610;2022-11-13T00:56:39;5.20;99.90
16327;DHT22;34812;49.846;9.610;2022-11-13T00:57:41;5.20;99.90
16327;DHT22;34812;49.846;9.610;2022-11-13T00:58:41;5.20;99.90
16327;DHT22;34812;49.846;9.610;2022-11-13T00:59:43;5.10;99.90
16327;DHT22;34812;49.846;9.610;2022-11-13T01:00:46;5.20;99.90
16327;DHT22;34812;49.846;9.610;2022-11-13T01:01:48;5.20;99.90
16327;DHT22;34812;49.846;9.610;2022-11-13T01:02:49;5.10;99.90
16327;DHT22;34812;49.846;9.610;2022-11-13T01:03:51;5.20;99.90
16327;DHT22;34812;49.846;9.610;2022-11-13T01:04:51;5.10;99.90
16327;DHT22;34812;49.846;9.610;2022-11-13T01:05:53;5.10;99.90
16327;DHT22;34812;49.846;9.610;2022-11-13T01:06:55;5.10;99.90
16327;DHT22;34812;49.846;9.610;2022-11-13T01:07:57;5.20;99.90
16327;DHT22;34812;49.846;9.610;2022-11-13T01:08:58;5.10;99.90
16327;DHT22;34812;49.846;9.610;2022-11-13T01:10:00;5.10;99.90
16327;DHT22;34812;49.846;9.610;2022-11-13T01:11:07;5.10;99.90
16327;DHT22;34812;49.846;9.610;2022-11-13T01:12:09;5.10;99.90
16327;DHT22;34812;49.846;9.610;2022-11-13T01:13:09;5.10;99.90
16327;DHT22;34812;49.846;9.610;2022-11-13T01:14:11;5.10;99.90
16327;DHT22;34812;49.846;9.610;2022-11-13T01:15:12;5.10;99.90
16327;DHT22;34812;49.846;9.610;2022-11-13T01:16:15;5.10;99.90
16327;DHT22;34812;49.846;9.610;2022-11-13T01:17:16;5.10;99.90
16327;DHT22;34812;49.846;9.610;2022-11-13T01:18:18;5.10;99.90
16327;DHT22;34812;49.846;9.610;2022-11-13T01:19:19;5.10;99.90
16327;DHT22;34812;49.846;9.610;2022-11-13T01:20:21;5.10;99.90
16327;DHT22;34812;49.846;9.610;2022-11-13T01:21:24;5.20;99.90
16327;DHT22;34812;49.846;9.610;2022-11-13T01:22:28;5.10;99.90
16327;DHT22;34812;49.846;9.610;2022-11-13T01:23:28;5.10;99.90
16327;DHT22;34812;49.846;9.610;2022-11-13T01:24:30;5.10;99.90
16327;DHT22;34812;49.846;9.610;2022-11-13T01:25:33;5.10;99.90
16327;DHT22;34812;49.846;9.610;2022-11-13T01:26:33;5.10;99.90
16327;DHT22;34812;49.846;9.610;2022-11-13T01:27:36;5.10;99.90
16327;DHT22;34812;49.846;9.610;2022-11-13T01:28:38;5.10;99.90
16327;DHT22;34812;49.846;9.610;2022-11-13T01:29:41;5.10;99.90
16327;DHT22;34812;49.846;9.610;2022-11-13T01:30:41;5.10;99.90
16327;DHT22;34812;49.846;9.610;2022-11-13T01:31:43;5.10;99.90
16327;DHT22;34812;49.846;9.610;2022-11-13T01:32:44;5.10;99.90
16327;DHT22;34812;49.846;9.610;2022-11-13T01:33:47;5.10;99.90
16327;DHT22;34812;49.846;9.610;2022-11-13T01:34:47;5.10;99.90
16327;DHT22;34812;49.846;9.610;2022-11-13T01:35:49;5.10;99.90
16327;DHT22;34812;49.846;9.610;2022-11-13T01:36:50;5.10;99.90
16327;DHT22;34812;49.846;9.610;2022-11-13T01:37:53;5.10;99.90
16327;DHT22;34812;49.846;9.610;2022-11-13T01:38:54;5.10;99.90
16327;DHT22;34812;49.846;9.610;2022-11-13T01:39:56;5.10;99.90
16327;DHT22;34812;49.846;9.610;2022-11-13T01:40:57;5.10;99.90
16327;DHT22;34812;49.846;9.610;2022-11-13T01:41:59;5.10;99.90
16327;DHT22;34812;49.846;9.610;2022-11-13T01:43:13;5.10;99.90
16327;DHT22;34812;49.846;9.610;2022-11-13T01:44:20;5.10;99.90
16327;DHT22;34812;49.846;9.610;2022-11-13T01:46:59;5.10;99.90
16327;DHT22;34812;49.846;9.610;2022-11-13T01:48:00;5.10;99.90
16327;DHT22;34812;49.846;9.610;2022-11-13T01:49:14;5.10;99.90
16327;DHT22;34812;49.846;9.610;2022-11-13T01:50:18;5.00;99.90
16327;DHT22;34812;49.846;9.610;2022-11-13T01:51:24;5.00;99.90
16327;DHT22;34812;49.846;9.610;2022-11-13T01:52:29;5.00;99.90
16327;DHT22;34812;49.846;9.610;2022-11-13T01:53:32;5.00;99.90
16327;DHT22;34812;49.846;9.610;2022-11-13T01:54:37;5.00;99.90
16327;DHT22;34812;49.846;9.610;2022-11-13T01:55:40;5.00;99.90
16327;DHT22;34812;49.846;9.610;2022-11-13T01:56:41;5.00;99.90
16327;DHT22;34812;49.846;9.610;2022-11-13T01:57:43;5.00;99.90
16327;DHT22;34812;49.846;9.610;2022-11-13T01:58:48;5.00;99.90
16327;DHT22;34812;49.846;9.610;2022-11-13T01:59:55;5.00;99.90
16327;DHT22;34812;49.846;9.610;2022-11-13T02:00:57;5.00;99.90
16327;DHT22;34812;49.846;9.610;2022-11-13T02:01:59;5.00;99.90
16327;DHT22;34812;49.846;9.610;2022-11-13T02:03:01;5.00;99.90
16327;DHT22;34812;49.846;9.610;2022-11-13T02:04:02;5.00;99.90
16327;DHT22;34812;49.846;9.610;2022-11-13T02:05:04;5.00;99.90
16327;DHT22;34812;49.846;9.610;2022-11-13T02:06:08;4.90;99.90
16327;DHT22;34812;49.846;9.610;2022-11-13T02:07:11;4.90;99.90
16327;DHT22;34812;49.846;9.610;2022-11-13T02:08:13;4.90;99.90
16327;DHT22;34812;49.846;9.610;2022-11-13T02:09:17;4.80;99.90
16327;DHT22;34812;49.846;9.610;2022-11-13T02:10:21;4.80;99.90
16327;DHT22;34812;49.846;9.610;2022-11-13T02:11:21;4.80;99.90
16327;DHT22;34812;49.846;9.610;2022-11-13T02:12:28;4.80;99.90
16327;DHT22;34812;49.846;9.610;2022-11-13T02:13:31;4.80;99.90
16327;DHT22;34812;49.846;9.610;2022-11-13T02:14:34;4.80;99.90
16327;DHT22;34812;49.846;9.610;2022-11-13T02:15:38;4.80;99.90
16327;DHT22;34812;49.846;9.610;2022-11-13T02:16:42;4.80;99.90
16327;DHT22;34812;49.846;9.610;2022-11-13T02:17:47;4.80;99.90
16327;DHT22;34812;49.846;9.610;2022-11-13T02:18:49;4.70;99.90
16327;DHT22;34812;49.846;9.610;2022-11-13T02:19:53;4.80;99.90
16327;DHT22;34812;49.846;9.610;2022-11-13T02:21:00;4.80;99.90
16327;DHT22;34812;49.846;9.610;2022-11-13T02:22:09;4.70;99.90
16327;DHT22;34812;49.846;9.610;2022-11-13T02:23:24;4.70;99.90
16327;DHT22;34812;49.846;9.610;2022-11-13T02:24:31;4.70;99.90
16327;DHT22;34812;49.846;9.610;2022-11-13T02:25:33;4.70;99.90
16327;DHT22;34812;49.846;9.610;2022-11-13T02:26:36;4.70;99.90
16327;DHT22;34812;49.846;9.610;2022-11-13T02:27:42;4.70;99.90
16327;DHT22;34812;49.846;9.610;2022-11-13T02:28:43;4.70;99.90
16327;DHT22;34812;49.846;9.610;2022-11-13T02:29:44;4.70;99.90
16327;DHT22;34812;49.846;9.610;2022-11-13T02:30:46;4.60;99.90
16327;DHT22;34812;49.846;9.610;2022-11-13T02:31:47;4.60;99.90
16327;DHT22;34812;49.846;9.610;2022-11-13T02:32:50;4.50;99.90
16327;DHT22;34812;49.846;9.610;2022-11-13T02:33:51;4.50;99.90
16327;DHT22;34812;49.846;9.610;2022-11-13T02:34:53;4.50;99.90
16327;DHT22;34812;49.846;9.610;2022-11-13T02:35:55;4.50;99.90
16327;DHT22;34812;49.846;9.610;2022-11-13T02:36:56;4.40;99.90
16327;DHT22;34812;49.846;9.610;2022-11-13T02:38:00;4.40;99.90
16327;DHT22;34812;49.846;9.610;2022-11-13T02:39:05;4.40;99.90
16327;DHT22;34812;49.846;9.610;2022-11-13T02:40:10;4.40;99.90
16327;DHT22;34812;49.846;9.610;2022-11-13T02:41:11;4.30;99.90
16327;DHT22;34812;49.846;9.610;2022-11-13T02:42:12;4.30;99.90
16327;DHT22;34812;49.846;9.610;2022-11-13T02:43:13;4.30;99.90
16327;DHT22;34812;49.846;9.610;2022-11-13T02:44:15;4.30;99.90
16327;DHT22;34812;49.846;9.610;2022-11-13T02:45:16;4.30;99.90
16327;DHT22;34812;49.846;9.610;2022-11-13T02:46:18;4.30;99.90
16327;DHT22;34812;49.846;9.610;2022-11-13T02:47:19;4.30;99.90
16327;DHT22;34812;49.846;9.610;2022-11-13T02:48:20;4.30;99.90
16327;DHT22;34812;49.846;9.610;2022-11-13T02:49:21;4.30;99.90
16327;DHT22;34812;49.846;9.610;2022-11-13T02:50:23;4.30;99.90
16327;DHT22;34812;49.846;9.610;2022-11-13T02:51:24;4.30;99.90
16327;DHT22;34812;49.846;9.610;2022-11-13T02:52:25;4.30;99.90
16327;DHT22;34812;49.846;9.610;2022-11-13T02:53:26;4.30;99.90
16327;DHT22;34812;49.846;9.610;2022-11-13T02:54:28;4.30;99.90
16327;DHT22;34812;49.846;9.610;2022-11-13T02:55:30;4.30;99.90
16327;DHT22;34812;49.846;9.610;2022-11-13T02:56:32;4.30;99.90
16327;DHT22;34812;49.846;9.610;2022-11-13T02:57:33;4.30;99.90
16327;DHT22;34812;49.846;9.610;2022-11-13T02:58:35;4.30;99.90
16327;DHT22;34812;49.846;9.610;2022-11-13T02:59:35;4.20;99.90
16327;DHT22;34812;49.846;9.610;2022-11-13T03:00:37;4.20;99.90
16327;DHT22;34812;49.846;9.610;2022-11-13T03:01:38;4.20;99.90
16327;DHT22;34812;49.846;9.610;2022-11-13T03:02:40;4.20;99.90
16327;DHT22;34812;49.846;9.610;2022-11-13T03:03:41;4.20;99.90
16327;DHT22;34812;49.846;9.610;2022-11-13T03:04:42;4.30;99.90
16327;DHT22;34812;49.846;9.610;2022-11-13T03:05:47;4.30;99.90
16327;DHT22;34812;49.846;9.610;2022-11-13T03:06:49;4.30;99.90
16327;DHT22;34812;49.846;9.610;2022-11-13T03:07:50;4.30;99.90
16327;DHT22;34812;49.846;9.610;2022-11-13T03:08:51;4.30;99.90
16327;DHT22;34812;49.846;9.610;2022-11-13T03:09:52;4.30;99.90
16327;DHT22;34812;49.846;9.610;2022-11-13T03:10:55;4.30;99.90
16327;DHT22;34812;49.846;9.610;2022-11-13T03:11:56;4.30;99.90
16327;DHT22;34812;49.846;9.610;2022-11-13T03:12:58;4.30;99.90
16327;DHT22;34812;49.846;9.610;2022-11-13T03:13:59;4.30;99.90
16327;DHT22;34812;49.846;9.610;2022-11-13T03:15:00;4.30;99.90
16327;DHT22;34812;49.846;9.610;2022-11-13T03:16:09;4.30;99.90
16327;DHT22;34812;49.846;9.610;2022-11-13T03:17:11;4.20;99.90
16327;DHT22;34812;49.846;9.610;2022-11-13T03:18:11;4.20;99.90
16327;DHT22;34812;49.846;9.610;2022-11-13T03:19:13;4.20;99.90
16327;DHT22;34812;49.846;9.610;2022-11-13T03:20:14;4.20;99.90
16327;DHT22;34812;49.846;9.610;2022-11-13T03:21:16;4.20;99.90
16327;DHT22;34812;49.846;9.610;2022-11-13T03:22:17;4.20;99.90
16327;DHT22;34812;49.846;9.610;2022-11-13T03:23:19;4.20;99.90
16327;DHT22;34812;49.846;9.610;2022-11-13T03:24:19;4.10;99.90
16327;DHT22;34812;49.846;9.610;2022-11-13T03:25:21;4.10;99.90
16327;DHT22;34812;49.846;9.610;2022-11-13T03:26:24;4.10;99.90
16327;DHT22;34812;49.846;9.610;2022-11-13T03:27:29;4.10;99.90
16327;DHT22;34812;49.846;9.610;2022-11-13T03:28:30;4.10;99.90
16327;DHT22;34812;49.846;9.610;2022-11-13T03:29:32;4.10;99.90
16327;DHT22;34812;49.846;9.610;2022-11-13T03:30:32;4.10;99.90
16327;DHT22;34812;49.846;9.610;2022-11-13T03:31:34;4.10;99.90
16327;DHT22;34812;49.846;9.610;2022-11-13T03:32:35;4.10;99.90
16327;DHT22;34812;49.846;9.610;2022-11-13T03:33:37;4.10;99.90
16327;DHT22;34812;49.846;9.610;2022-11-13T03:34:38;4.10;99.90
16327;DHT22;34812;49.846;9.610;2022-11-13T03:35:41;4.10;99.90
16327;DHT22;34812;49.846;9.610;2022-11-13T03:36:41;4.10;99.90
16327;DHT22;34812;49.846;9.610;2022-11-13T03:37:43;4.10;99.90
16327;DHT22;34812;49.846;9.610;2022-11-13T03:38:44;4.10;99.90
16327;DHT22;34812;49.846;9.610;2022-11-13T03:39:46;4.10;99.90
16327;DHT22;34812;49.846;9.610;2022-11-13T03:40:46;4.10;99.90
16327;DHT22;34812;49.846;9.610;2022-11-13T03:41:50;4.00;99.90
16327;DHT22;34812;49.846;9.610;2022-11-13T03:42:50;4.00;99.90
16327;DHT22;34812;49.846;9.610;2022-11-13T03:43:52;4.00;99.90
16327;DHT22;34812;49.846;9.610;2022-11-13T03:44:53;4.00;99.90
16327;DHT22;34812;49.846;9.610;2022-11-13T03:45:55;4.00;99.90
16327;DHT22;34812;49.846;9.610;2022-11-13T03:46:55;4.00;99.90
16327;DHT22;34812;49.846;9.610;2022-11-13T03:47:57;3.90;99.90
16327;DHT22;34812;49.846;9.610;2022-11-13T03:48:58;3.90;99.90
16327;DHT22;34812;49.846;9.610;2022-11-13T03:49:59;3.90;99.90
16327;DHT22;34812;49.846;9.610;2022-11-13T03:51:00;3.90;99.90
16327;DHT22;34812;49.846;9.610;2022-11-13T03:52:02;3.90;99.90
16327;DHT22;34812;49.846;9.610;2022-11-13T03:53:03;3.90;99.90
16327;DHT22;34812;49.846;9.610;2022-11-13T03:54:05;3.90;99.90
16327;DHT22;34812;49.846;9.610;2022-11-13T03:55:06;3.80;99.90
16327;DHT22;34812;49.846;9.610;2022-11-13T03:56:08;3.80;99.90
16327;DHT22;34812;49.846;9.610;2022-11-13T03:57:11;3.80;99.90
16327;DHT22;34812;49.846;9.610;2022-11-13T03:58:13;3.80;99.90
16327;DHT22;34812;49.846;9.610;2022-11-13T03:59:13;3.80;99.90
16327;DHT22;34812;49.846;9.610;2022-11-13T04:00:16;3.90;99.90
16327;DHT22;34812;49.846;9.610;2022-11-13T04:01:17;3.80;99.90
16327;DHT22;34812;49.846;9.610;2022-11-13T04:02:18;3.90;99.90
16327;DHT22;34812;49.846;9.610;2022-11-13T04:03:19;3.90;99.90
16327;DHT22;34812;49.846;9.610;2022-11-13T04:04:21;3.80;99.90
16327;DHT22;34812;49.846;9.610;2022-11-13T04:05:22;3.90;99.90
16327;DHT22;34812;49.846;9.610;2022-11-13T04:06:24;3.90;99.90
16327;DHT22;34812;49.846;9.610;2022-11-13T04:07:24;3.80;99.90
16327;DHT22;34812;49.846;9.610;2022-11-13T04:08:26;3.80;99.90
16327;DHT22;34812;49.846;9.610;2022-11-13T04:09:27;3.80;99.90
16327;DHT22;34812;49.846;9.610;2022-11-13T04:10:29;3.70;99.90
16327;DHT22;34812;49.846;9.610;2022-11-13T04:11:30;3.70;99.90
16327;DHT22;34812;49.846;9.610;2022-11-13T04:12:33;3.70;99.90
16327;DHT22;34812;49.846;9.610;2022-11-13T04:13:34;3.70;99.90
16327;DHT22;34812;49.846;9.610;2022-11-13T04:14:36;3.70;99.90
16327;DHT22;34812;49.846;9.610;2022-11-13T04:15:36;3.80;99.90
16327;DHT22;34812;49.846;9.610;2022-11-13T04:16:38;3.80;99.90
16327;DHT22;34812;49.846;9.610;2022-11-13T04:17:39;3.80;99.90
16327;DHT22;34812;49.846;9.610;2022-11-13T04:18:41;3.80;99.90
16327;DHT22;34812;49.846;9.610;2022-11-13T04:19:42;3.80;99.90
16327;DHT22;34812;49.846;9.610;2022-11-13T04:20:43;3.80;99.90
16327;DHT22;34812;49.846;9.610;2022-11-13T04:21:44;3.80;99.90
16327;DHT22;34812;49.846;9.610;2022-11-13T04:22:46;3.80;99.90
16327;DHT22;34812;49.846;9.610;2022-11-13T04:23:47;3.80;99.90
16327;DHT22;34812;49.846;9.610;2022-11-13T04:24:49;3.80;99.90
16327;DHT22;34812;49.846;9.610;2022-11-13T04:25:49;3.80;99.90
16327;DHT22;34812;49.846;9.610;2022-11-13T04:26:51;3.80;99.90
16327;DHT22;34812;49.846;9.610;2022-11-13T04:27:54;3.80;99.90
16327;DHT22;34812;49.846;9.610;2022-11-13T04:28:55;3.80;99.90
16327;DHT22;34812;49.846;9.610;2022-11-13T04:29:57;3.80;99.90
16327;DHT22;34812;49.846;9.610;2022-11-13T04:30:57;3.80;99.90
16327;DHT22;34812;49.846;9.610;2022-11-13T04:31:59;3.80;99.90
16327;DHT22;34812;49.846;9.610;2022-11-13T04:33:01;3.70;99.90
16327;DHT22;34812;49.846;9.610;2022-11-13T04:34:02;3.70;99.90
16327;DHT22;34812;49.846;9.610;2022-11-13T04:35:04;3.70;99.90
16327;DHT22;34812;49.846;9.610;2022-11-13T04:36:06;3.70;99.90
16327;DHT22;34812;49.846;9.610;2022-11-13T04:37:07;3.70;99.90
16327;DHT22;34812;49.846;9.610;2022-11-13T04:38:08;3.70;99.90
16327;DHT22;34812;49.846;9.610;2022-11-13T04:39:10;3.70;99.90
16327;DHT22;34812;49.846;9.610;2022-11-13T04:40:11;3.70;99.90
16327;DHT22;34812;49.846;9.610;2022-11-13T04:41:12;3.60;99.90
16327;DHT22;34812;49.846;9.610;2022-11-13T04:42:32;3.70;99.90
16327;DHT22;34812;49.846;9.610;2022-11-13T04:43:52;3.70;99.90
16327;DHT22;34812;49.846;9.610;2022-11-13T04:44:53;3.60;99.90
16327;DHT22;34812;49.846;9.610;2022-11-13T04:45:54;3.60;99.90
16327;DHT22;34812;49.846;9.610;2022-11-13T04:46:55;3.60;99.90
16327;DHT22;34812;49.846;9.610;2022-11-13T04:47:57;3.50;99.90
16327;DHT22;34812;49.846;9.610;2022-11-13T04:48:57;3.60;99.90
16327;DHT22;34812;49.846;9.610;2022-11-13T04:49:59;3.50;99.90
16327;DHT22;34812;49.846;9.610;2022-11-13T04:51:00;3.50;99.90
16327;DHT22;34812;49.846;9.610;2022-11-13T04:52:02;3.50;99.90
16327;DHT22;34812;49.846;9.610;2022-11-13T04:53:03;3.50;99.90
16327;DHT22;34812;49.846;9.610;2022-11-13T04:54:04;3.60;99.90
16327;DHT22;34812;49.846;9.610;2022-11-13T04:55:06;3.50;99.90
16327;DHT22;34812;49.846;9.610;2022-11-13T04:56:08;3.50;99.90
16327;DHT22;34812;49.846;9.610;2022-11-13T04:57:08;3.50;99.90
16327;DHT22;34812;49.846;9.610;2022-11-13T04:58:10;3.50;99.90
16327;DHT22;34812;49.846;9.610;2022-11-13T04:59:12;3.50;99.90
16327;DHT22;34812;49.846;9.610;2022-11-13T05:00:15;3.50;99.90
16327;DHT22;34812;49.846;9.610;2022-11-13T05:01:15;3.60;99.90
16327;DHT22;34812;49.846;9.610;2022-11-13T05:02:17;3.60;99.90
16327;DHT22;34812;49.846;9.610;2022-11-13T05:03:18;3.50;99.90
16327;DHT22;34812;49.846;9.610;2022-11-13T05:04:21;3.50;99.90
16327;DHT22;34812;49.846;9.610;2022-11-13T05:05:21;3.50;99.90
16327;DHT22;34812;49.846;9.610;2022-11-13T05:06:23;3.50;99.90
16327;DHT22;34812;49.846;9.610;2022-11-13T05:07:24;3.50;99.90
16327;DHT22;34812;49.846;9.610;2022-11-13T05:08:26;3.50;99.90
16327;DHT22;34812;49.846;9.610;2022-11-13T05:09:27;3.50;99.90
16327;DHT22;34812;49.846;9.610;2022-11-13T05:10:29;3.50;99.90
16327;DHT22;34812;49.846;9.610;2022-11-13T05:11:30;3.50;99.90
16327;DHT22;34812;49.846;9.610;2022-11-13T05:12:31;3.50;99.90
16327;DHT22;34812;49.846;9.610;2022-11-13T05:13:33;3.50;99.90
16327;DHT22;34812;49.846;9.610;2022-11-13T05:14:37;3.50;99.90
16327;DHT22;34812;49.846;9.610;2022-11-13T05:15:38;3.50;99.90
16327;DHT22;34812;49.846;9.610;2022-11-13T05:16:40;3.50;99.90
16327;DHT22;34812;49.846;9.610;2022-11-13T05:17:41;3.50;99.90
16327;DHT22;34812;49.846;9.610;2022-11-13T05:18:42;3.50;99.90
16327;DHT22;34812;49.846;9.610;2022-11-13T05:19:43;3.50;99.90
16327;DHT22;34812;49.846;9.610;2022-11-13T05:20:45;3.50;99.90
16327;DHT22;34812;49.846;9.610;2022-11-13T05:21:46;3.50;99.90
16327;DHT22;34812;49.846;9.610;2022-11-13T05:22:47;3.40;99.90
16327;DHT22;34812;49.846;9.610;2022-11-13T05:23:48;3.40;99.90
16327;DHT22;34812;49.846;9.610;2022-11-13T05:24:50;3.40;99.90
16327;DHT22;34812;49.846;9.610;2022-11-13T05:25:51;3.40;99.90
16327;DHT22;34812;49.846;9.610;2022-11-13T05:26:54;3.40;99.90
16327;DHT22;34812;49.846;9.610;2022-11-13T05:27:56;3.40;99.90
16327;DHT22;34812;49.846;9.610;2022-11-13T05:28:59;3.40;99.90
16327;DHT22;34812;49.846;9.610;2022-11-13T05:30:02;3.40;99.90
16327;DHT22;34812;49.846;9.610;2022-11-13T05:31:05;3.40;99.90
16327;DHT22;34812;49.846;9.610;2022-11-13T05:32:07;3.40;99.90
16327;DHT22;34812;49.846;9.610;2022-11-13T05:33:08;3.40;99.90
16327;DHT22;34812;49.846;9.610;2022-11-13T05:34:09;3.30;99.90
16327;DHT22;34812;49.846;9.610;2022-11-13T05:35:11;3.30;99.90
16327;DHT22;34812;49.846;9.610;2022-11-13T05:36:13;3.30;99.90
16327;DHT22;34812;49.846;9.610;2022-11-13T05:37:15;3.20;99.90
16327;DHT22;34812;49.846;9.610;2022-11-13T05:38:16;3.20;99.90
16327;DHT22;34812;49.846;9.610;2022-11-13T05:39:18;3.20;99.90
16327;DHT22;34812;49.846;9.610;2022-11-13T05:40:19;3.10;99.90
16327;DHT22;34812;49.846;9.610;2022-11-13T05:41:21;3.10;99.90
16327;DHT22;34812;49.846;9.610;2022-11-13T05:42:22;3.10;99.90
16327;DHT22;34812;49.846;9.610;2022-11-13T05:43:24;3.10;99.90
16327;DHT22;34812;49.846;9.610;2022-11-13T05:44:25;3.10;99.90
16327;DHT22;34812;49.846;9.610;2022-11-13T05:45:28;3.20;99.90
16327;DHT22;34812;49.846;9.610;2022-11-13T05:46:29;3.20;99.90
16327;DHT22;34812;49.846;9.610;2022-11-13T05:47:31;3.20;99.90
16327;DHT22;34812;49.846;9.610;2022-11-13T05:48:33;3.20;99.90
16327;DHT22;34812;49.846;9.610;2022-11-13T05:49:35;3.20;99.90
16327;DHT22;34812;49.846;9.610;2022-11-13T05:50:36;3.20;99.90
16327;DHT22;34812;49.846;9.610;2022-11-13T05:51:37;3.20;99.90
16327;DHT22;34812;49.846;9.610;2022-11-13T05:52:38;3.30;99.90
16327;DHT22;34812;49.846;9.610;2022-11-13T05:53:40;3.20;99.90
16327;DHT22;34812;49.846;9.610;2022-11-13T05:54:41;3.20;99.90
16327;DHT22;34812;49.846;9.610;2022-11-13T05:55:43;3.10;99.90
16327;DHT22;34812;49.846;9.610;2022-11-13T05:56:44;3.10;99.90
16327;DHT22;34812;49.846;9.610;2022-11-13T05:57:45;3.10;99.90
16327;DHT22;34812;49.846;9.610;2022-11-13T05:58:47;3.10;99.90
16327;DHT22;34812;49.846;9.610;2022-11-13T05:59:49;3.10;99.90
16327;DHT22;34812;49.846;9.610;2022-11-13T06:00:51;3.10;99.90
16327;DHT22;34812;49.846;9.610;2022-11-13T06:01:53;3.10;99.90
16327;DHT22;34812;49.846;9.610;2022-11-13T06:02:54;3.00;99.90
16327;DHT22;34812;49.846;9.610;2022-11-13T06:03:56;3.00;99.90
16327;DHT22;34812;49.846;9.610;2022-11-13T06:04:57;3.00;99.90
16327;DHT22;34812;49.846;9.610;2022-11-13T06:05:59;3.00;99.90
16327;DHT22;34812;49.846;9.610;2022-11-13T06:07:00;3.00;99.90
16327;DHT22;34812;49.846;9.610;2022-11-13T06:08:02;3.00;99.90
16327;DHT22;34812;49.846;9.610;2022-11-13T06:09:04;3.00;99.90
16327;DHT22;34812;49.846;9.610;2022-11-13T06:10:07;3.00;99.90
16327;DHT22;34812;49.846;9.610;2022-11-13T06:11:09;3.00;99.90
16327;DHT22;34812;49.846;9.610;2022-11-13T06:12:11;3.00;99.90
16327;DHT22;34812;49.846;9.610;2022-11-13T06:13:12;2.90;99.90
16327;DHT22;34812;49.846;9.610;2022-11-13T06:14:14;2.90;99.90
16327;DHT22;34812;49.846;9.610;2022-11-13T06:15:15;3.00;99.90
16327;DHT22;34812;49.846;9.610;2022-11-13T06:16:20;3.00;99.90
16327;DHT22;34812;49.846;9.610;2022-11-13T06:17:20;2.90;99.90
16327;DHT22;34812;49.846;9.610;2022-11-13T06:18:23;2.90;99.90
16327;DHT22;34812;49.846;9.610;2022-11-13T06:19:24;2.90;99.90
16327;DHT22;34812;49.846;9.610;2022-11-13T06:20:25;2.90;99.90
16327;DHT22;34812;49.846;9.610;2022-11-13T06:21:29;3.00;99.90
16327;DHT22;34812;49.846;9.610;2022-11-13T06:22:31;3.00;99.90
16327;DHT22;34812;49.846;9.610;2022-11-13T06:23:33;3.00;99.90
16327;DHT22;34812;49.846;9.610;2022-11-13T06:24:35;3.00;99.90
16327;DHT22;34812;49.846;9.610;2022-11-13T06:25:36;3.00;99.90
16327;DHT22;34812;49.846;9.610;2022-11-13T06:26:37;3.00;99.90
16327;DHT22;34812;49.846;9.610;2022-11-13T06:27:38;3.00;99.90
16327;DHT22;34812;49.846;9.610;2022-11-13T06:28:40;3.00;99.90
16327;DHT22;34812;49.846;9.610;2022-11-13T06:29:41;3.00;99.90
16327;DHT22;34812;49.846;9.610;2022-11-13T06:30:42;3.00;99.90
16327;DHT22;34812;49.846;9.610;2022-11-13T06:31:44;3.00;99.90
16327;DHT22;34812;49.846;9.610;2022-11-13T06:32:51;3.00;99.90
16327;DHT22;34812;49.846;9.610;2022-11-13T06:33:52;3.00;99.90
16327;DHT22;34812;49.846;9.610;2022-11-13T06:34:54;3.00;99.90
16327;DHT22;34812;49.846;9.610;2022-11-13T06:35:56;3.10;99.90
16327;DHT22;34812;49.846;9.610;2022-11-13T06:36:56;3.10;99.90
16327;DHT22;34812;49.846;9.610;2022-11-13T06:37:58;3.10;99.90
16327;DHT22;34812;49.846;9.610;2022-11-13T06:38:59;3.10;99.90
16327;DHT22;34812;49.846;9.610;2022-11-13T06:40:01;3.10;99.90